Time;durP1;ratioP1;P1;durP2;ratioP2;P2;SDS_P1;SDS_P2;PMS_P1;PMS_P2;Temp;Humidity;BMP_temperature;BMP_pressure;BME280_temperature;BME280_humidity;BME280_pressure;Samples;Min_cycle;Max_cycle;Signal;HPM_P1;HPM_P2
2022/02/14 00:02:23;;;;;;;15.55;9.70;;;-0.20;65.40;;;-1.67;50.33;94710.69;6130256;23;20174;-81
2022/02/14 00:04:50;;;;;;;13.65;8.93;;;-0.20;65.40;;;-1.66;50.24;94720.03;6081894;23;20211;-81
2022/02/14 00:07:17;;;;;;;13.23;9.02;;;-0.20;65.40;;;-1.70;50.42;94710.91;6106553;23;20256;-81
2022/02/14 00:09:44;;;;;;;14.10;8.18;;;-0.30;65.50;;;-1.70;50.56;94708.34;6130825;23;20190;-82
2022/02/14 00:12:11;;;;;;;15.15;8.30;;;-0.30;65.60;;;-1.69;50.32;94711.75;6106617;23;20181;-82
2022/02/14 00:14:38;;;;;;;12.55;8.30;;;-0.30;65.60;;;-1.70;50.16;94708.34;6131146;23;20479;-80
2022/02/14 00:17:06;;;;;;;14.07;8.52;;;-0.30;65.60;;;-1.70;50.36;94710.91;6106586;23;20512;-81
2022/02/14 00:19:33;;;;;;;13.98;8.55;;;-0.30;65.60;;;-1.77;50.40;94702.88;6130486;23;20185;-81
2022/02/14 00:22:01;;;;;;;12.75;8.63;;;-0.30;65.70;;;-1.72;50.27;94701.69;6106555;23;20204;-81
2022/02/14 00:24:28;;;;;;;14.82;8.70;;;-0.30;65.70;;;-1.78;50.62;94693.53;6129899;23;20221;-81
2022/02/14 00:26:55;;;;;;;12.35;7.93;;;-0.40;65.70;;;-1.75;50.38;94700.19;6106128;23;20212;-81
2022/02/14 00:29:23;;;;;;;14.52;8.38;;;-0.40;65.70;;;-1.77;50.26;94696.91;6130969;23;20272;-81
2022/02/14 00:31:52;;;;;;;15.10;8.73;;;-0.40;65.80;;;-1.78;50.55;94701.25;6130639;23;20245;-82
2022/02/14 00:34:19;;;;;;;15.57;8.32;;;-0.40;65.80;;;-1.80;50.52;94692.03;6129555;23;20256;-81
2022/02/14 00:36:46;;;;;;;13.60;8.95;;;-0.40;65.80;;;-1.80;50.65;94697.97;6105926;23;20205;-81
2022/02/14 00:39:13;;;;;;;12.10;8.13;;;-0.40;65.90;;;-1.81;50.50;94691.22;6106094;23;20197;-81
2022/02/14 00:41:40;;;;;;;13.13;8.45;;;-0.40;65.90;;;-1.84;50.80;94696.59;6104825;23;20181;-81
2022/02/14 00:44:07;;;;;;;13.98;8.93;;;-0.40;65.90;;;-1.82;50.54;94692.16;6130486;23;20293;-82
2022/02/14 00:46:35;;;;;;;11.45;7.72;;;-0.40;65.90;;;-1.84;50.93;94685.50;6105356;23;20197;-81
2022/02/14 00:49:02;;;;;;;14.27;9.20;;;-0.40;66.00;;;-1.82;50.89;94688.75;6130469;23;20228;-81
2022/02/14 00:51:29;;;;;;;13.88;8.45;;;-0.40;66.10;;;-1.81;50.85;94678.38;6104736;23;20621;-82
2022/02/14 00:53:57;;;;;;;13.65;8.90;;;-0.40;66.10;;;-1.80;50.92;94686.88;6130633;23;20643;-82
2022/02/14 00:56:24;;;;;;;15.05;9.23;;;-0.40;66.10;;;-1.81;50.92;94680.94;6105826;23;20224;-81
2022/02/14 00:58:51;;;;;;;14.82;9.23;;;-0.50;66.10;;;-1.80;50.87;94679.19;6082054;23;20181;-81
2022/02/14 01:01:19;;;;;;;15.25;9.35;;;-0.40;66.30;;;-1.80;50.74;94684.31;6105437;23;20678;-81
2022/02/14 01:03:47;;;;;;;16.60;9.48;;;-0.40;66.20;;;-1.80;50.97;94690.25;6082073;23;20256;-81
2022/02/14 01:06:14;;;;;;;15.50;9.40;;;-0.40;66.30;;;-1.82;51.13;94678.47;6154698;23;20212;-81
2022/02/14 01:08:41;;;;;;;13.05;8.23;;;-0.50;66.20;;;-1.80;51.10;94674.84;6104671;23;20200;-82
2022/02/14 01:11:08;;;;;;;16.73;9.52;;;-0.50;66.30;;;-1.83;51.35;94675.09;6105967;23;20193;-82
2022/02/14 01:13:36;;;;;;;21.65;12.27;;;-0.40;66.40;;;-1.79;51.17;94680.81;6130361;23;20166;-81
2022/02/14 01:16:04;;;;;;;17.92;10.50;;;-0.50;66.30;;;-1.80;51.16;94676.59;6105782;23;20189;-81
2022/02/14 01:18:31;;;;;;;17.92;10.23;;;-0.50;66.40;;;-1.82;51.03;94668.19;6129744;23;20616;-82
2022/02/14 01:20:58;;;;;;;17.05;9.77;;;-0.40;66.50;;;-1.81;50.89;94674.97;6105148;23;20197;-82
2022/02/14 01:23:25;;;;;;;14.75;9.38;;;-0.40;66.50;;;-1.80;51.13;94677.41;6105785;23;20176;-82
2022/02/14 01:25:53;;;;;;;14.38;9.95;;;-0.50;66.50;;;-1.83;51.28;94680.25;6105238;23;20197;-82
2022/02/14 01:28:20;;;;;;;18.88;10.55;;;-0.50;66.40;;;-1.89;51.32;94669.63;6106302;23;20181;-82
2022/02/14 01:30:48;;;;;;;16.02;9.77;;;-0.50;66.50;;;-1.84;51.32;94676.03;6130215;23;20232;-82
2022/02/14 01:33:15;;;;;;;14.30;9.65;;;-0.50;66.50;;;-1.86;51.05;94669.38;6105655;23;20177;-82
2022/02/14 01:35:43;;;;;;;15.13;9.02;;;-0.50;66.50;;;-1.87;51.32;94665.97;6129458;23;20244;-82
2022/02/14 01:38:15;;;;;;;13.30;9.52;;;-0.50;66.50;;;-1.91;51.25;94664.59;6130893;23;20205;-82
2022/02/14 01:40:42;;;;;;;16.25;9.45;;;-0.50;66.50;;;-1.88;51.58;94673.81;6130328;23;20268;-82
2022/02/14 01:43:09;;;;;;;14.82;9.45;;;-0.50;66.60;;;-1.91;51.47;94671.50;6105849;23;20283;-82
2022/02/14 01:45:36;;;;;;;16.00;8.68;;;-0.50;66.60;;;-1.94;51.54;94667.44;6104959;23;20303;-82
2022/02/14 01:48:06;;;;;;;15.25;8.63;;;-0.50;66.70;;;-1.89;51.72;94662.72;6105448;23;20526;-81
2022/02/14 01:50:33;;;;;;;12.88;8.65;;;-0.50;66.70;;;-1.94;51.31;94649.44;6104798;23;20232;-81
2022/02/14 01:53:00;;;;;;;13.98;8.90;;;-0.50;66.70;;;-1.91;51.65;94646.59;6104815;23;20178;-81
2022/02/14 01:55:27;;;;;;;11.73;8.60;;;-0.50;66.70;;;-1.92;51.71;94650.13;6104859;23;20821;-81
2022/02/14 01:57:55;;;;;;;13.13;8.93;;;-0.50;66.70;;;-1.95;51.43;94647.81;6129054;23;20177;-82
2022/02/14 02:00:23;;;;;;;16.48;10.00;;;-0.60;66.70;;;-1.94;51.89;94652.00;6128569;23;20296;-82
2022/02/14 02:02:50;;;;;;;16.58;10.40;;;-0.60;66.80;;;-1.98;51.64;94648.03;6081724;23;20181;-81
2022/02/14 02:05:17;;;;;;;16.40;9.45;;;-0.60;66.70;;;-1.99;51.79;94644.66;6105272;23;20284;-80
2022/02/14 02:07:45;;;;;;;16.33;9.38;;;-0.60;66.80;;;-2.01;51.44;94638.81;6105084;23;20231;-81
2022/02/14 02:10:12;;;;;;;14.02;9.07;;;-0.60;66.80;;;-2.06;51.79;94634.97;6105433;23;20228;-81
2022/02/14 02:12:54;;;;;;;14.50;9.07;;;-0.60;66.80;;;-2.05;51.72;94640.00;6129398;23;20177;-82
2022/02/14 02:15:23;;;;;;;11.85;7.43;;;-0.60;67.50;;;-2.04;51.69;94633.09;6105297;23;20527;-82
2022/02/14 02:17:51;;;;;;;13.50;8.60;;;-0.70;66.80;;;-2.07;51.81;94625.66;6153572;23;20193;-81
2022/02/14 02:20:19;;;;;;;11.80;8.18;;;-0.70;66.80;;;-2.12;51.57;94621.66;6129760;23;20200;-82
2022/02/14 02:22:49;;;;;;;15.98;9.25;;;-0.70;66.80;;;-2.15;51.61;94619.34;6129664;23;20244;-81
2022/02/14 02:25:18;;;;;;;13.05;8.85;;;-0.70;66.90;;;-2.13;51.75;94622.59;6104741;23;20523;-82
2022/02/14 02:27:46;;;;;;;14.18;9.23;;;-0.70;66.90;;;-2.14;51.57;94626.09;6104975;23;20276;-81
2022/02/14 02:30:22;;;;;;;14.90;9.43;;;-0.70;66.90;;;-2.17;51.65;94615.25;6105104;23;20588;-82
2022/02/14 02:32:51;;;;;;;17.35;10.40;;;-0.70;66.90;;;-2.23;51.58;94613.16;6129984;23;20263;-82
2022/02/14 02:35:19;;;;;;;15.65;9.40;;;-0.80;66.70;;;-2.24;51.82;94614.13;6104804;23;20648;-81
2022/02/14 02:37:46;;;;;;;14.32;8.40;;;-0.80;66.80;;;-2.32;51.72;94597.56;6129757;23;20232;-82
2022/02/14 02:40:13;;;;;;;14.90;8.60;;;-0.80;66.90;;;-2.29;51.70;94606.78;6105389;23;20201;-82
2022/02/14 02:42:40;;;;;;;14.73;9.00;;;-0.80;66.80;;;-2.31;51.78;94613.78;6104796;23;20225;-81
2022/02/14 02:45:08;;;;;;;13.82;8.20;;;-0.90;66.80;;;-2.32;51.82;94618.13;6129528;23;20381;-81
2022/02/14 02:47:36;;;;;;;16.02;9.98;;;-0.90;66.90;;;-2.35;51.84;94617.53;6128857;23;20256;-82
2022/02/14 02:50:04;;;;;;;17.42;10.40;;;-0.90;66.80;;;-2.38;51.80;94613.47;6129430;23;20197;-81
2022/02/14 02:52:32;;;;;;;16.17;9.82;;;-0.90;66.90;;;-2.40;51.61;94612.75;6081784;23;20181;-81
2022/02/14 02:54:59;;;;;;;14.38;8.77;;;-1.00;66.90;;;-2.49;51.82;94603.19;6153996;23;20204;-81
2022/02/14 02:57:27;;;;;;;14.07;8.48;;;-1.00;66.80;;;-2.49;51.87;94603.19;6104901;23;20181;-82
2022/02/14 02:59:55;;;;;;;12.82;8.45;;;-1.00;66.90;;;-2.52;51.60;94603.44;6129149;23;20220;-82
2022/02/14 03:02:22;;;;;;;12.90;7.90;;;-1.00;66.90;;;-2.53;51.75;94605.19;6105611;23;20184;-81
2022/02/14 03:04:49;;;;;;;14.20;8.40;;;-1.10;66.80;;;-2.55;51.92;94606.22;6128693;23;20225;-82
2022/02/14 03:07:16;;;;;;;12.70;8.23;;;-1.10;66.90;;;-2.62;51.76;94599.00;6104745;23;20201;-82
2022/02/14 03:09:46;;;;;;;15.48;10.48;;;-1.10;66.90;;;-2.65;51.92;94603.56;6105364;23;20576;-82
2022/02/14 03:12:19;;;;;;;16.65;11.57;;;-1.10;66.90;;;-2.68;51.72;94591.78;6106254;23;20232;-81
2022/02/14 03:14:48;;;;;;;16.58;11.10;;;-1.20;66.80;;;-2.67;51.60;94595.16;6105829;23;20244;-81
2022/02/14 03:17:16;;;;;;;14.57;9.43;;;-1.20;66.90;;;-2.70;51.92;94592.84;6104449;23;20623;-80
2022/02/14 03:19:44;;;;;;;13.65;8.75;;;-1.20;66.90;;;-2.72;52.01;94589.56;6128397;23;20193;-81
2022/02/14 03:22:12;;;;;;;13.93;8.60;;;-1.20;67.00;;;-2.77;51.87;94588.19;6129404;23;20185;-81
2022/02/14 03:24:40;;;;;;;14.18;9.20;;;-1.30;66.90;;;-2.75;52.01;94593.19;6105400;23;20200;-82
2022/02/14 03:27:07;;;;;;;13.20;8.43;;;-1.30;67.00;;;-2.82;52.01;94579.19;6128790;23;20707;-81
2022/02/14 03:29:34;;;;;;;14.05;8.60;;;-1.30;67.10;;;-2.76;51.97;94591.56;6105156;23;20193;-81
2022/02/14 03:32:02;;;;;;;12.93;8.27;;;-1.30;67.10;;;-2.77;52.26;94590.75;6104854;23;20177;-82
2022/02/14 03:34:29;;;;;;;11.95;7.88;;;-1.30;67.20;;;-2.78;52.18;94572.91;6128704;23;20305;-82
2022/02/14 03:36:56;;;;;;;12.98;8.50;;;-1.30;67.20;;;-2.78;52.11;94581.41;6103750;23;20553;-81
2022/02/14 03:39:24;;;;;;;12.85;9.00;;;-1.40;67.20;;;-2.80;52.01;94578.13;6129496;23;20185;-80
2022/02/14 03:41:51;;;;;;;14.68;8.73;;;-1.40;67.20;;;-2.80;52.05;94583.28;6105027;23;20197;-82
2022/02/14 03:44:18;;;;;;;13.30;8.52;;;-1.40;67.20;;;-2.81;52.35;94573.13;6104309;23;20249;-80
2022/02/14 03:46:45;;;;;;;12.55;7.80;;;-1.40;67.10;;;-2.87;52.30;94553.88;6104705;23;20193;-82
2022/02/14 03:49:12;;;;;;;15.02;8.82;;;-1.40;67.30;;;-2.82;52.27;94566.38;6129123;23;20264;-81
2022/02/14 03:51:39;;;;;;;12.77;8.20;;;-1.40;67.40;;;-2.80;52.61;94567.06;6105705;23;20170;-81
2022/02/14 03:54:06;;;;;;;15.38;9.05;;;-1.30;67.50;;;-2.77;52.42;94577.09;6128265;23;20205;-81
2022/02/14 03:56:33;;;;;;;13.15;8.35;;;-1.40;67.40;;;-2.77;52.21;94574.50;6104545;23;20177;-81
2022/02/14 03:59:01;;;;;;;13.73;8.23;;;-1.40;67.50;;;-2.85;52.31;94562.28;6128380;23;20228;-81
2022/02/14 04:01:28;;;;;;;12.60;7.63;;;-1.40;67.40;;;-2.80;52.62;94572.19;6104564;23;20173;-82
2022/02/14 04:03:55;;;;;;;15.50;8.68;;;-1.40;67.50;;;-2.84;52.27;94574.19;6155046;23;20369;-81
2022/02/14 04:06:22;;;;;;;15.30;9.45;;;-1.40;67.50;;;-2.88;52.21;94564.28;6104468;23;20248;-81
2022/02/14 04:08:50;;;;;;;16.23;9.27;;;-1.40;67.50;;;-2.86;52.22;94568.34;6104401;23;20249;-81
2022/02/14 04:11:17;;;;;;;14.02;8.80;;;-1.40;67.50;;;-2.89;52.28;94571.16;6106179;23;20631;-81
2022/02/14 04:13:44;;;;;;;14.63;8.43;;;-1.50;67.50;;;-2.94;52.44;94568.94;6105242;23;20617;-80
2022/02/14 04:16:11;;;;;;;13.15;7.97;;;-1.50;67.50;;;-2.96;52.07;94564.88;6130679;23;20193;-81
2022/02/14 04:18:38;;;;;;;13.73;8.50;;;-1.50;67.50;;;-2.98;52.48;94562.44;6081623;23;20240;-81
2022/02/14 04:21:05;;;;;;;12.50;8.07;;;-1.50;67.60;;;-3.00;52.56;94559.16;6106343;23;20232;-81
2022/02/14 04:23:33;;;;;;;14.77;8.30;;;-1.50;67.60;;;-2.99;52.71;94560.78;6106628;23;20248;-81
2022/02/14 04:26:00;;;;;;;12.52;8.25;;;-1.50;67.70;;;-3.04;52.48;94560.31;6130144;23;20193;-81
2022/02/14 04:28:29;;;;;;;15.02;8.48;;;-1.50;67.70;;;-3.03;52.60;94559.38;6107714;23;20204;-81
2022/02/14 04:30:56;;;;;;;11.93;8.00;;;-1.60;67.70;;;-3.07;52.38;94553.66;6130407;23;20264;-81
2022/02/14 04:33:23;;;;;;;13.10;8.07;;;-1.60;67.70;;;-3.10;51.91;94556.47;6105686;23;20181;-82
2022/02/14 04:35:50;;;;;;;13.13;8.15;;;-1.60;67.70;;;-3.10;52.29;94555.66;6130554;23;20189;-81
2022/02/14 04:38:17;;;;;;;13.30;7.90;;;-1.60;67.70;;;-3.16;52.60;94551.00;6106050;23;20178;-82
2022/02/14 04:40:44;;;;;;;13.43;7.85;;;-1.60;67.70;;;-3.15;52.45;94553.47;6155186;23;20244;-82
2022/02/14 04:43:11;;;;;;;11.80;7.75;;;-1.70;67.60;;;-3.23;52.46;94546.31;6106498;23;20169;-81
2022/02/14 04:45:39;;;;;;;11.15;7.75;;;-1.70;67.60;;;-3.19;52.61;94554.59;6130225;23;20205;-82
2022/02/14 04:48:06;;;;;;;12.68;7.93;;;-1.70;67.70;;;-3.20;52.39;94552.16;6130521;23;20271;-82
2022/02/14 04:50:35;;;;;;;13.68;8.38;;;-1.70;67.70;;;-3.26;52.47;94561.13;6107200;23;20198;-82
2022/02/14 04:53:02;;;;;;;15.23;9.73;;;-1.70;67.60;;;-3.29;52.60;94554.50;6129916;23;20494;-82
2022/02/14 04:55:29;;;;;;;17.17;9.98;;;-1.80;68.50;;;-3.29;52.87;94559.63;6106111;23;20193;-81
2022/02/14 04:57:57;;;;;;;14.98;8.68;;;-1.80;67.60;;;-3.29;52.75;94557.06;6105652;23;20257;-82
2022/02/14 05:00:24;;;;;;;14.30;8.77;;;-1.80;67.60;;;-3.33;52.66;94562.53;6105405;23;20201;-81
2022/02/14 05:02:51;;;;;;;13.50;8.65;;;-1.80;67.60;;;-3.37;52.84;94556.81;6130707;23;20169;-81
2022/02/14 05:05:20;;;;;;;14.52;9.10;;;-1.90;67.50;;;-3.32;52.74;94564.16;6130386;23;20195;-81
2022/02/14 05:07:50;;;;;;;16.13;9.52;;;-1.80;67.60;;;-3.34;52.48;94561.72;6105826;23;20205;-81
2022/02/14 05:10:19;;;;;;;19.75;10.23;;;-1.90;67.50;;;-3.35;52.77;94565.22;6106966;23;20252;-81
2022/02/14 05:12:46;;;;;;;17.70;10.95;;;-1.90;67.50;;;-3.35;52.76;94569.53;6106102;23;20601;-81
2022/02/14 05:15:13;;;;;;;18.88;10.30;;;-1.90;67.60;;;-3.38;53.01;94568.03;6130172;23;20200;-80
2022/02/14 05:17:40;;;;;;;19.38;11.38;;;-1.90;67.50;;;-3.40;52.36;94569.88;6106394;23;20244;-81
2022/02/14 05:20:08;;;;;;;18.83;10.20;;;-1.90;67.60;;;-3.47;52.73;94569.50;6129914;23;20247;-81
2022/02/14 05:22:35;;;;;;;18.95;10.95;;;-2.00;67.50;;;-3.46;52.91;94580.59;6130394;23;20608;-82
2022/02/14 05:25:03;;;;;;;17.88;10.45;;;-1.90;67.50;;;-3.53;52.73;94569.97;6081890;23;20198;-81
2022/02/14 05:27:30;;;;;;;17.65;11.27;;;-2.00;67.50;;;-3.51;52.82;94580.13;6130049;23;20233;-81
2022/02/14 05:29:58;;;;;;;17.70;10.40;;;-2.00;67.50;;;-3.54;52.63;94581.13;6129405;23;20268;-81
2022/02/14 05:32:25;;;;;;;17.38;10.55;;;-2.00;67.40;;;-3.56;52.72;94577.91;6105816;23;20387;-82
2022/02/14 05:34:53;;;;;;;20.33;13.27;;;-2.10;67.40;;;-3.57;52.72;94576.25;6105393;23;20280;-82
2022/02/14 05:37:20;;;;;;;17.92;11.93;;;-2.10;67.40;;;-3.58;52.81;94572.06;6105993;23;20200;-81
2022/02/14 05:39:47;;;;;;;16.75;10.55;;;-2.10;67.50;;;-3.59;53.08;94578.94;6129749;23;20296;-81
2022/02/14 05:42:16;;;;;;;21.63;13.57;;;-2.10;67.40;;;-3.62;52.77;94573.22;6106099;23;20500;-82
2022/02/14 05:44:44;;;;;;;22.73;13.90;;;-2.10;67.40;;;-3.60;52.79;94579.03;6102581;23;20279;-81
2022/02/14 05:47:14;;;;;;;19.35;12.70;;;-2.10;67.40;;;-3.62;52.81;94568.09;6129073;23;20655;-82
2022/02/14 05:49:41;;;;;;;19.67;12.70;;;-2.10;67.40;;;-3.61;52.80;94573.09;6153368;23;20193;-82
2022/02/14 05:52:09;;;;;;;18.50;12.65;;;-2.10;67.40;;;-3.61;52.99;94573.09;6127459;23;20559;-80
2022/02/14 05:54:36;;;;;;;20.23;12.50;;;-2.10;67.50;;;-3.62;52.74;94576.59;6130413;23;20197;-82
2022/02/14 05:57:05;;;;;;;18.05;11.63;;;-2.20;67.30;;;-3.62;52.95;94578.34;6105215;23;20181;-81
2022/02/14 05:59:32;;;;;;;15.55;10.68;;;-2.20;67.30;;;-3.65;52.79;94576.84;6129574;23;20268;-82
2022/02/14 06:02:02;;;;;;;23.88;10.27;;;-2.20;67.40;;;-3.63;52.76;94574.16;6129732;23;20165;-82
2022/02/14 06:04:30;;;;;;;21.48;10.23;;;-2.20;67.60;;;-3.64;53.21;94577.63;6105142;23;20732;-82
2022/02/14 06:06:57;;;;;;;18.05;10.13;;;-2.20;67.50;;;-3.67;53.00;94580.41;6104347;23;20182;-82
2022/02/14 06:09:26;;;;;;;18.02;10.02;;;-2.20;67.50;;;-3.66;52.87;94577.75;6105621;23;20292;-81
2022/02/14 06:11:57;;;;;;;27.83;20.63;;;-2.20;67.60;;;-3.68;53.01;94574.47;6104438;23;20177;-81
2022/02/14 06:14:26;;;;;;;30.27;22.15;;;-2.20;67.60;;;-3.65;53.09;94588.81;6102414;23;20193;-81
2022/02/14 06:16:54;;;;;;;23.60;17.45;;;-2.20;67.70;;;-3.64;53.01;94575.88;6077302;23;20260;-81
2022/02/14 06:19:23;;;;;;;20.10;15.23;;;-2.20;67.80;;;-3.61;53.11;94578.22;6102301;23;20198;-80
2022/02/14 06:21:53;;;;;;;19.85;13.25;;;-2.20;67.80;;;-3.59;52.82;94578.09;6151921;23;20517;-82
2022/02/14 06:24:20;;;;;;;16.23;11.68;;;-2.20;67.90;;;-3.56;53.22;94572.78;6080515;23;20224;-82
2022/02/14 06:26:48;;;;;;;44.13;20.58;;;-2.20;68.00;;;-3.51;53.41;94572.44;6150880;23;20181;-82
2022/02/14 06:29:15;;;;;;;35.50;18.20;;;-2.20;68.00;;;-3.48;53.14;94567.88;6101882;23;20722;-81
2022/02/14 06:31:42;;;;;;;29.52;16.52;;;-2.20;68.10;;;-3.44;53.18;94566.72;6102796;23;20178;-82
2022/02/14 06:34:09;;;;;;;37.20;17.63;;;-2.20;68.10;;;-3.42;53.02;94564.03;6125550;23;20197;-82
2022/02/14 06:36:36;;;;;;;34.28;17.95;;;-2.10;68.20;;;-3.42;53.29;94558.91;6102620;23;20552;-81
2022/02/14 06:39:03;;;;;;;30.08;16.98;;;-2.10;68.20;;;-3.30;53.30;94568.25;6129023;23;20228;-81
2022/02/14 06:41:31;;;;;;;30.23;16.80;;;-2.10;68.30;;;-3.28;53.16;94565.56;6129220;23;20197;-81
2022/02/14 06:43:58;;;;;;;24.00;13.70;;;-2.00;68.40;;;-3.24;53.42;94570.34;6104835;23;20182;-81
2022/02/14 06:46:25;;;;;;;24.00;12.25;;;-2.00;68.40;;;-3.19;53.04;94570.00;6104526;23;20624;-82
2022/02/14 06:48:53;;;;;;;20.23;11.85;;;-2.00;68.40;;;-3.08;53.25;94569.97;6081084;23;20267;-81
2022/02/14 06:51:20;;;;;;;18.77;11.60;;;-1.90;68.50;;;-3.04;53.30;94570.56;6128889;23;20177;-82
2022/02/14 06:53:47;;;;;;;17.73;10.70;;;-1.90;68.50;;;-2.94;53.51;94573.25;6104374;23;20185;-83
2022/02/14 06:56:15;;;;;;;16.90;10.82;;;-1.80;68.60;;;-2.86;53.39;94578.63;6105204;23;20513;-82
2022/02/14 06:58:42;;;;;;;17.85;11.82;;;-1.80;68.70;;;-2.80;53.41;94580.72;6080483;23;20501;-81
2022/02/14 07:01:10;;;;;;;20.08;11.70;;;-1.70;68.80;;;-2.69;53.37;94582.44;6128507;23;20240;-82
2022/02/14 07:03:39;;;;;;;16.75;9.77;;;-1.60;68.90;;;-2.63;53.31;94584.53;6081182;23;20264;-82
2022/02/14 07:06:07;;;;;;;15.77;10.30;;;-1.60;68.90;;;-2.59;53.35;94575.69;6104863;23;20644;-82
2022/02/14 07:08:35;;;;;;;17.20;10.88;;;-1.50;69.00;;;-2.51;53.50;94572.50;6129193;23;20224;-82
2022/02/14 07:11:03;;;;;;;17.58;10.43;;;-1.40;69.00;;;-2.40;53.72;94579.38;6104587;23;20244;-82
2022/02/14 07:13:30;;;;;;;18.55;10.77;;;-1.40;68.90;;;-2.32;53.58;94581.31;6129002;23;20421;-83
2022/02/14 07:15:57;;;;;;;17.52;10.75;;;-1.30;69.00;;;-2.25;53.47;94582.47;6129456;23;20565;-82
2022/02/14 07:18:25;;;;;;;14.70;9.73;;;-1.30;69.90;;;-2.18;53.49;94581.03;6128662;23;20180;-81
2022/02/14 07:20:52;;;;;;;15.05;10.48;;;-1.20;69.00;;;-2.10;53.52;94572.72;6104929;23;20193;-82
2022/02/14 07:23:20;;;;;;;16.75;10.35;;;-1.20;69.00;;;-2.00;53.79;94580.50;6104850;23;20613;-81
2022/02/14 07:25:48;;;;;;;16.55;10.45;;;-1.10;69.10;;;-1.94;53.64;94580.84;6105252;23;20236;-81
2022/02/14 07:28:15;;;;;;;18.67;10.85;;;-1.00;69.10;;;-1.87;53.66;94576.00;6103871;23;20212;-81
2022/02/14 07:30:44;;;;;;;17.23;10.73;;;-0.90;69.20;;;-1.80;53.66;94577.16;6128796;23;20193;-81
2022/02/14 07:33:11;;;;;;;20.92;10.73;;;-0.90;69.20;;;-1.72;53.69;94575.72;6104797;23;20633;-82
2022/02/14 07:35:38;;;;;;;18.70;10.60;;;-0.80;69.40;;;-1.66;53.49;94572.63;6128856;23;20197;-81
2022/02/14 07:38:06;;;;;;;15.82;10.48;;;-0.70;70.20;;;-1.62;53.77;94567.13;6129081;23;20173;-82
2022/02/14 07:40:34;;;;;;;19.65;10.38;;;-0.70;69.30;;;-1.50;53.84;94580.75;6104960;23;20643;-81
2022/02/14 07:43:01;;;;;;;14.85;10.02;;;-0.60;69.40;;;-1.45;53.77;94581.16;6103945;23;20224;-81
2022/02/14 07:45:29;;;;;;;17.38;11.43;;;-0.50;69.40;;;-1.35;53.66;94583.00;6106248;23;20289;-82
2022/02/14 07:47:56;;;;;;;15.30;10.07;;;-0.50;69.30;;;-1.30;53.81;94570.56;6105249;23;20237;-81
2022/02/14 07:50:23;;;;;;;19.48;11.48;;;-0.40;69.30;;;-1.22;53.80;94567.34;6106198;23;20212;-81
2022/02/14 07:52:51;;;;;;;16.05;10.30;;;-0.30;69.40;;;-1.15;53.95;94565.88;6106352;23;20597;-82
2022/02/14 07:55:19;;;;;;;17.50;10.40;;;-0.30;69.60;;;-1.05;53.88;94566.75;6082354;23;20197;-81
2022/02/14 07:57:47;;;;;;;14.27;9.85;;;-0.20;69.50;;;-0.97;53.75;94556.59;6106758;23;20181;-82
2022/02/14 08:00:16;;;;;;;15.77;10.65;;;0.00;69.70;;;-0.88;53.67;94565.34;6130242;23;20201;-81
2022/02/14 08:02:43;;;;;;;16.63;10.60;;;-0.10;69.60;;;-0.81;54.08;94558.72;6083078;23;20182;-82
2022/02/14 08:05:11;;;;;;;16.90;10.68;;;0.00;69.60;;;-0.74;53.76;94563.34;6130096;23;20197;-81
2022/02/14 08:07:38;;;;;;;16.27;10.68;;;0.10;69.70;;;-0.65;53.82;94554.81;6105533;23;20185;-81
2022/02/14 08:10:26;;;;;;;18.88;10.07;;;0.10;69.70;;;-0.58;53.72;94544.81;6090462;23;20624;-81
2022/02/14 08:12:54;;;;;;;16.30;11.02;;;0.20;69.70;;;-0.45;53.81;94558.25;6106917;23;20299;-82
2022/02/14 08:15:21;;;;;;;19.35;11.85;;;0.40;69.80;;;-0.36;54.20;94554.88;6130712;23;20185;-82
2022/02/14 08:17:50;;;;;;;19.17;12.00;;;0.40;69.80;;;-0.26;54.50;94560.03;6106770;23;20211;-83
2022/02/14 08:20:18;;;;;;;20.08;12.10;;;0.50;69.90;;;-0.19;53.97;94553.41;6106040;23;20611;-81
2022/02/14 08:22:46;;;;;;;20.88;11.88;;;0.60;70.00;;;-0.07;54.06;94553.28;6130694;23;20209;-82
2022/02/14 08:25:13;;;;;;;24.25;14.30;;;0.60;70.00;;;0.03;54.48;94566.19;6105830;23;20208;-83
2022/02/14 08:27:43;;;;;;;47.90;21.27;;;0.70;69.90;;;0.10;54.14;94555.19;6106710;23;20177;-82
2022/02/14 08:30:10;;;;;;;26.38;14.82;;;0.80;70.00;;;0.17;54.31;94552.84;6130632;23;20197;-82
2022/02/14 08:32:39;;;;;;;23.67;13.15;;;0.90;69.90;;;0.27;54.55;94551.09;6130326;23;20170;-82
2022/02/14 08:35:07;;;;;;;18.58;12.65;;;0.90;69.80;;;0.37;54.04;94558.03;6106519;23;20204;-82
2022/02/14 08:37:34;;;;;;;21.15;12.55;;;1.00;69.80;;;0.44;54.24;94548.75;6082226;23;20177;-83
2022/02/14 08:40:02;;;;;;;20.05;12.00;;;1.10;69.80;;;0.52;54.13;94541.13;6130709;23;20248;-82
2022/02/14 08:42:29;;;;;;;21.73;12.65;;;1.20;69.70;;;0.61;54.41;94545.47;6130298;23;20178;-81
2022/02/14 08:44:56;;;;;;;20.90;12.50;;;1.30;69.90;;;0.70;54.21;94541.22;6129852;23;20198;-82
2022/02/14 08:47:23;;;;;;;21.88;12.90;;;1.30;69.80;;;0.78;54.45;94540.53;6130792;23;20613;-82
2022/02/14 08:49:50;;;;;;;19.98;13.00;;;1.40;69.80;;;0.86;54.42;94537.25;6106090;23;20263;-83
2022/02/14 08:52:20;;;;;;;20.92;12.52;;;1.50;69.90;;;0.94;54.23;94539.91;6131152;23;20189;-81
2022/02/14 08:54:47;;;;;;;19.55;12.52;;;1.60;70.00;;;0.95;54.42;94526.06;6106782;23;20228;-82
2022/02/14 08:57:14;;;;;;;22.52;13.55;;;1.60;70.00;;;1.09;54.66;94540.28;6106609;23;20198;-81
2022/02/14 08:59:42;;;;;;;19.83;13.30;;;1.70;70.10;;;1.16;54.67;94538.75;6154847;23;20194;-82
2022/02/14 09:02:09;;;;;;;23.60;13.52;;;1.80;70.10;;;1.19;54.10;94528.13;6130357;23;20170;-83
2022/02/14 09:04:37;;;;;;;20.17;12.23;;;1.80;70.20;;;1.23;54.42;94524.31;6105932;23;20248;-82
2022/02/14 09:07:04;;;;;;;18.88;12.65;;;1.90;70.20;;;1.34;54.39;94538.00;6106487;23;20635;-83
2022/02/14 09:09:32;;;;;;;17.65;12.13;;;2.00;70.30;;;1.34;54.33;94523.28;6105510;23;20217;-83
2022/02/14 09:12:00;;;;;;;20.60;13.10;;;2.10;70.30;;;1.47;54.15;94529.91;6106323;23;20582;-82
2022/02/14 09:14:27;;;;;;;18.48;12.95;;;2.10;70.30;;;1.58;54.46;94540.84;6130678;23;20189;-83
2022/02/14 09:16:55;;;;;;;21.15;13.98;;;2.20;70.40;;;1.64;54.49;94534.28;6106138;23;20178;-82
2022/02/14 09:19:23;;;;;;;21.05;13.45;;;2.20;70.40;;;1.63;54.00;94517.13;6130218;23;20250;-82
2022/02/14 09:21:51;;;;;;;21.13;14.05;;;2.30;70.50;;;1.76;54.16;94533.09;6106360;23;20185;-83
2022/02/14 09:24:18;;;;;;;22.15;13.63;;;2.50;70.60;;;1.82;53.98;94518.78;6105358;23;20193;-83
2022/02/14 09:26:46;;;;;;;23.25;14.73;;;2.40;70.60;;;1.91;54.52;94530.81;6105553;23;20209;-83
2022/02/14 09:29:15;;;;;;;22.90;14.48;;;2.50;70.60;;;1.98;54.16;94532.78;6129620;23;20296;-82
2022/02/14 09:31:42;;;;;;;22.58;13.32;;;2.60;70.70;;;2.02;54.16;94527.19;6081436;23;20182;-82
2022/02/14 09:34:10;;;;;;;20.80;14.00;;;2.60;70.60;;;2.12;54.24;94532.28;6105388;23;20208;-82
2022/02/14 09:36:37;;;;;;;20.27;13.15;;;2.70;70.40;;;2.20;54.04;94527.19;6082221;23;20201;-82
2022/02/14 09:39:08;;;;;;;21.92;14.38;;;2.70;70.30;;;2.26;53.97;94530.13;6105787;23;20224;-82
2022/02/14 09:41:37;;;;;;;21.13;14.23;;;2.80;70.40;;;2.34;54.26;94536.16;6105727;23;20171;-82
2022/02/14 09:44:08;;;;;;;25.10;14.48;;;2.90;70.50;;;2.42;54.32;94526.84;6104857;23;20192;-83
2022/02/14 09:46:37;;;;;;;22.48;14.23;;;2.90;70.50;;;2.49;54.10;94526.09;6106066;23;20177;-81
2022/02/14 09:49:05;;;;;;;19.83;13.52;;;3.00;70.90;;;2.58;53.85;94524.38;6081462;23;20197;-82
2022/02/14 09:51:36;;;;;;;20.13;13.13;;;3.10;70.50;;;2.68;54.25;94524.28;6130586;23;20547;-82
2022/02/14 09:54:05;;;;;;;18.52;12.40;;;3.30;70.50;;;2.70;53.75;94514.59;6081645;23;20229;-82
2022/02/14 09:56:35;;;;;;;25.35;13.90;;;3.30;70.40;;;2.83;54.03;94519.34;6105091;23;20174;-83
2022/02/14 09:59:06;;;;;;;21.42;13.23;;;3.30;70.30;;;2.87;53.75;94518.88;6082344;23;20201;-82
2022/02/14 10:01:40;;;;;;;19.55;13.43;;;3.40;70.50;;;2.99;53.86;94518.59;6106528;23;20173;-83
2022/02/14 10:04:08;;;;;;;19.98;13.88;;;3.50;70.40;;;3.07;54.13;94515.25;6081039;23;20620;-82
2022/02/14 10:06:41;;;;;;;17.60;12.70;;;3.50;70.30;;;3.14;53.99;94514.47;6128929;23;20256;-82
2022/02/14 10:09:23;;;;;;;23.25;14.07;;;3.60;70.50;;;3.25;53.60;94522.91;6081319;23;20213;-82
2022/02/14 10:12:06;;;;;;;20.38;14.25;;;3.70;70.50;;;3.33;54.10;94512.59;6106098;23;20552;-82
2022/02/14 10:14:34;;;;;;;22.60;14.25;;;3.80;70.50;;;3.39;53.96;94505.97;6080610;23;20252;-82
2022/02/14 10:17:22;;;;;;;21.35;13.80;;;3.90;70.50;;;3.51;54.01;94513.28;6106893;23;20169;-81